AAL811 KLAX-PHNL
Flight info
| Callsign | AAL811 |
|---|---|
| Flight time | 5h 18m |
| Altitude | 40000 |
| Route | SUMMR2 DINTY DUETS R576 DENNS INOYI1 |
| Aircraft | B788/H-VGDW/C |
Departure
| Time | 2026-05-04 00:24 |
|---|---|
| Airport | Los Angeles International Airport (KLAX) |
Arrival
| Time | 2026-05-04 05:42 |
|---|---|
| Airport | Daniel K. Inouye International Airport (PHNL) |
| Time | Latitude | Longitude | Altitude | Speed | Heading |
|---|---|---|---|---|---|
| 2026-05-04 00:17 | 33.94251 | -118.43302 | 139 ft | 0 kts | 86° |
| 2026-05-04 00:18 | 33.94251 | -118.43301 | 139 ft | 0 kts | 86° |
| 2026-05-04 00:18 | 33.94296 | -118.43236 | 139 ft | 19 kts | 33° |
| 2026-05-04 00:18 | 33.94416 | -118.43176 | 139 ft | 14 kts | 16° |
| 2026-05-04 00:19 | 33.94430 | -118.43171 | 139 ft | 0 kts | 16° |
| 2026-05-04 00:19 | 33.94473 | -118.43156 | 139 ft | 12 kts | 16° |
| 2026-05-04 00:19 | 33.94575 | -118.43117 | 139 ft | 17 kts | 32° |
| 2026-05-04 00:20 | 33.94616 | -118.42980 | 139 ft | 21 kts | 82° |
| 2026-05-04 00:20 | 33.94637 | -118.42785 | 139 ft | 26 kts | 83° |
| 2026-05-04 00:20 | 33.94659 | -118.42552 | 139 ft | 30 kts | 84° |
| 2026-05-04 00:20 | 33.94686 | -118.42291 | 139 ft | 33 kts | 82° |
| 2026-05-04 00:21 | 33.94718 | -118.42008 | 139 ft | 35 kts | 83° |
| 2026-05-04 00:21 | 33.94749 | -118.41715 | 139 ft | 37 kts | 83° |
| 2026-05-04 00:21 | 33.94779 | -118.41417 | 139 ft | 34 kts | 83° |
| 2026-05-04 00:21 | 33.94810 | -118.41125 | 139 ft | 32 kts | 82° |
| 2026-05-04 00:22 | 33.94839 | -118.40863 | 139 ft | 27 kts | 82° |
| 2026-05-04 00:22 | 33.94864 | -118.40627 | 139 ft | 30 kts | 83° |
| 2026-05-04 00:22 | 33.94891 | -118.40378 | 139 ft | 26 kts | 83° |
| 2026-05-04 00:22 | 33.94919 | -118.40203 | 139 ft | 16 kts | 57° |
| 2026-05-04 00:23 | 33.95000 | -118.40193 | 139 ft | 13 kts | 327° |
| 2026-05-04 00:23 | 33.95012 | -118.40263 | 139 ft | 10 kts | 261° |
| 2026-05-04 00:23 | 33.94976 | -118.40599 | 139 ft | 93 kts | 263° |
| 2026-05-04 00:23 | 33.94856 | -118.41767 | 265 ft | 171 kts | 263° |
| 2026-05-04 00:24 | 33.94680 | -118.43120 | 1563 ft | 162 kts | 258° |
| 2026-05-04 00:24 | 33.94159 | -118.44338 | 2213 ft | 168 kts | 242° |
| 2026-05-04 00:24 | 33.93429 | -118.45499 | 2531 ft | 181 kts | 231° |
| 2026-05-04 00:24 | 33.92728 | -118.46855 | 2849 ft | 206 kts | 244° |
| 2026-05-04 00:25 | 33.92610 | -118.48648 | 3225 ft | 223 kts | 267° |
| 2026-05-04 00:25 | 33.92601 | -118.50560 | 3880 ft | 239 kts | 268° |
| 2026-05-04 00:25 | 33.92515 | -118.52620 | 4611 ft | 253 kts | 266° |
| 2026-05-04 00:25 | 33.92383 | -118.54801 | 5464 ft | 262 kts | 265° |
| 2026-05-04 00:26 | 33.92243 | -118.57014 | 6300 ft | 271 kts | 266° |
| 2026-05-04 00:26 | 33.92452 | -118.59313 | 7070 ft | 280 kts | 278° |
| 2026-05-04 00:26 | 33.92729 | -118.61632 | 7972 ft | 285 kts | 276° |
| 2026-05-04 00:26 | 33.92842 | -118.64027 | 8847 ft | 289 kts | 270° |
| 2026-05-04 00:27 | 33.92818 | -118.66451 | 9792 ft | 289 kts | 265° |
| 2026-05-04 00:27 | 33.92720 | -118.68909 | 10582 ft | 297 kts | 264° |
| 2026-05-04 00:27 | 33.92571 | -118.71447 | 11120 ft | 313 kts | 262° |
| 2026-05-04 00:27 | 33.92384 | -118.74141 | 11589 ft | 331 kts | 262° |
| 2026-05-04 00:28 | 33.92173 | -118.76949 | 11854 ft | 351 kts | 262° |
| 2026-05-04 00:28 | 33.91939 | -118.79961 | 12198 ft | 371 kts | 262° |
| 2026-05-04 00:28 | 33.91824 | -118.83101 | 12866 ft | 383 kts | 266° |
| 2026-05-04 00:28 | 33.91836 | -118.86360 | 13567 ft | 393 kts | 268° |
| 2026-05-04 00:29 | 33.91902 | -118.89685 | 14338 ft | 400 kts | 269° |
| 2026-05-04 00:29 | 33.91992 | -118.93054 | 15254 ft | 403 kts | 269° |
| 2026-05-04 00:29 | 33.92101 | -118.96419 | 16261 ft | 402 kts | 270° |
| 2026-05-04 00:29 | 33.92560 | -118.99764 | 17215 ft | 407 kts | 280° |
| 2026-05-04 00:30 | 33.93563 | -119.02952 | 18267 ft | 406 kts | 288° |
| 2026-05-04 00:30 | 33.94480 | -119.06128 | 19184 ft | 402 kts | 281° |
| 2026-05-04 00:30 | 33.94844 | -119.09471 | 19864 ft | 401 kts | 270° |
| 2026-05-04 00:30 | 33.94595 | -119.12805 | 20552 ft | 402 kts | 258° |
| 2026-05-04 00:31 | 33.93863 | -119.16052 | 21355 ft | 401 kts | 252° |
| 2026-05-04 00:31 | 33.93014 | -119.19265 | 22071 ft | 403 kts | 251° |
| 2026-05-04 00:31 | 33.92057 | -119.22446 | 22714 ft | 406 kts | 249° |
| 2026-05-04 00:31 | 33.91102 | -119.25654 | 23344 ft | 408 kts | 251° |
| 2026-05-04 00:32 | 33.90306 | -119.28946 | 23986 ft | 411 kts | 254° |
| 2026-05-04 00:32 | 33.89654 | -119.32318 | 24556 ft | 414 kts | 256° |
| 2026-05-04 00:32 | 33.89121 | -119.35666 | 25411 ft | 409 kts | 258° |
| 2026-05-04 00:32 | 33.88653 | -119.39046 | 26121 ft | 410 kts | 259° |
| 2026-05-04 00:33 | 33.88217 | -119.42454 | 26480 ft | 416 kts | 259° |
| 2026-05-04 00:33 | 33.87381 | -119.49438 | 27399 ft | 425 kts | 260° |
| 2026-05-04 00:33 | 33.86969 | -119.52992 | 27971 ft | 428 kts | 260° |
| 2026-05-04 00:34 | 33.86560 | -119.56546 | 28625 ft | 429 kts | 261° |
| 2026-05-04 00:34 | 33.86156 | -119.60069 | 29291 ft | 431 kts | 261° |
| 2026-05-04 00:34 | 33.85746 | -119.63643 | 30002 ft | 431 kts | 261° |
| 2026-05-04 00:34 | 33.85338 | -119.67193 | 30743 ft | 429 kts | 261° |
| 2026-05-04 00:35 | 33.84929 | -119.70752 | 31456 ft | 428 kts | 261° |
| 2026-05-04 00:35 | 33.84521 | -119.74294 | 32185 ft | 425 kts | 261° |
| 2026-05-04 00:35 | 33.84115 | -119.77806 | 32893 ft | 422 kts | 260° |
| 2026-05-04 00:35 | 33.83711 | -119.81305 | 33601 ft | 419 kts | 260° |
| 2026-05-04 00:36 | 33.83309 | -119.84760 | 34284 ft | 417 kts | 260° |
| 2026-05-04 00:36 | 33.82906 | -119.88212 | 34962 ft | 414 kts | 260° |
| 2026-05-04 00:36 | 33.82506 | -119.91625 | 35623 ft | 411 kts | 260° |
| 2026-05-04 00:36 | 33.82108 | -119.95021 | 36248 ft | 408 kts | 259° |
| 2026-05-04 00:37 | 33.81715 | -119.98360 | 36843 ft | 405 kts | 259° |
| 2026-05-04 00:37 | 33.81321 | -120.01708 | 37414 ft | 403 kts | 259° |
| 2026-05-04 00:37 | 33.80930 | -120.05018 | 37949 ft | 400 kts | 259° |
| 2026-05-04 00:37 | 33.80540 | -120.08312 | 38464 ft | 397 kts | 259° |
| 2026-05-04 00:38 | 33.80150 | -120.11605 | 38960 ft | 395 kts | 259° |
| 2026-05-04 00:38 | 33.79762 | -120.14866 | 39448 ft | 392 kts | 259° |
| 2026-05-04 00:38 | 33.79375 | -120.18117 | 39729 ft | 391 kts | 259° |
| 2026-05-04 00:38 | 33.78988 | -120.21350 | 39909 ft | 390 kts | 259° |
| 2026-05-04 00:39 | 33.78608 | -120.24527 | 39942 ft | 389 kts | 259° |
| 2026-05-04 00:39 | 33.77844 | -120.30906 | 39955 ft | 380 kts | 259° |
| 2026-05-04 00:40 | 33.77091 | -120.37152 | 39966 ft | 377 kts | 259° |
| 2026-05-04 00:40 | 33.76327 | -120.43435 | 39967 ft | 381 kts | 259° |
| 2026-05-04 00:41 | 33.75562 | -120.49727 | 39955 ft | 380 kts | 259° |
| 2026-05-04 00:41 | 33.74794 | -120.56010 | 39970 ft | 380 kts | 259° |
| 2026-05-04 00:42 | 33.74045 | -120.62144 | 39968 ft | 359 kts | 258° |
| 2026-05-04 00:42 | 33.73693 | -120.65036 | 39950 ft | 342 kts | 258° |
| 2026-05-04 00:42 | 33.73351 | -120.67816 | 39941 ft | 333 kts | 258° |
| 2026-05-04 00:43 | 33.72659 | -120.73372 | 39967 ft | 340 kts | 258° |
| 2026-05-04 00:43 | 33.71951 | -120.79056 | 39965 ft | 349 kts | 258° |
| 2026-05-04 00:44 | 33.71223 | -120.84879 | 39960 ft | 354 kts | 258° |
| 2026-05-04 00:44 | 33.70494 | -120.90715 | 39963 ft | 353 kts | 258° |
| 2026-05-04 00:45 | 33.69760 | -120.96561 | 39968 ft | 354 kts | 258° |
| 2026-05-04 00:45 | 33.69027 | -121.02373 | 39956 ft | 354 kts | 258° |
| 2026-05-04 00:46 | 33.68287 | -121.08220 | 39968 ft | 354 kts | 258° |
| 2026-05-04 00:46 | 33.67545 | -121.14069 | 39963 ft | 354 kts | 258° |
| 2026-05-04 00:47 | 33.66798 | -121.19922 | 39958 ft | 353 kts | 258° |
| 2026-05-04 00:47 | 33.66042 | -121.25763 | 39524 ft | 368 kts | 260° |
| 2026-05-04 00:47 | 33.65642 | -121.28907 | 39419 ft | 373 kts | 258° |
| 2026-05-04 00:48 | 33.65295 | -121.31810 | 40774 ft | 344 kts | 258° |
| 2026-05-04 00:48 | 33.64928 | -121.34658 | 41044 ft | 342 kts | 259° |
| 2026-05-04 00:48 | 33.64560 | -121.37464 | 41031 ft | 345 kts | 258° |
| 2026-05-04 00:49 | 33.63802 | -121.43233 | 40898 ft | 353 kts | 259° |
| 2026-05-04 00:49 | 33.63426 | -121.46118 | 40551 ft | 346 kts | 258° |
| 2026-05-04 00:49 | 33.63057 | -121.48955 | 40182 ft | 337 kts | 258° |
| 2026-05-04 00:49 | 33.62701 | -121.51694 | 39994 ft | 328 kts | 258° |
| 2026-05-04 00:50 | 33.62347 | -121.54394 | 39987 ft | 329 kts | 258° |
| 2026-05-04 00:50 | 33.61623 | -121.59897 | 39964 ft | 337 kts | 258° |
| 2026-05-04 00:51 | 33.60887 | -121.65483 | 39971 ft | 345 kts | 258° |
| 2026-05-04 00:51 | 33.60124 | -121.71260 | 40008 ft | 352 kts | 258° |
| 2026-05-04 00:52 | 33.59356 | -121.77073 | 40021 ft | 358 kts | 258° |
| 2026-05-04 00:52 | 33.58568 | -121.83002 | 40029 ft | 361 kts | 258° |
| 2026-05-04 00:53 | 33.57774 | -121.88952 | 40013 ft | 360 kts | 258° |
| 2026-05-04 00:53 | 33.56979 | -121.94894 | 40026 ft | 361 kts | 258° |
| 2026-05-04 00:54 | 33.56179 | -122.00848 | 40021 ft | 361 kts | 258° |
| 2026-05-04 00:54 | 33.55382 | -122.06756 | 40025 ft | 360 kts | 258° |
| 2026-05-04 00:55 | 33.54580 | -122.12683 | 40024 ft | 360 kts | 258° |
| 2026-05-04 00:55 | 33.53777 | -122.18590 | 40016 ft | 360 kts | 258° |
| 2026-05-04 00:56 | 33.52967 | -122.24531 | 40029 ft | 361 kts | 258° |
| 2026-05-04 00:56 | 33.52158 | -122.30456 | 40027 ft | 357 kts | 257° |
| 2026-05-04 00:57 | 33.51374 | -122.36190 | 40006 ft | 342 kts | 257° |
| 2026-05-04 00:57 | 33.50724 | -122.40883 | 40025 ft | 345 kts | 257° |
| 2026-05-04 00:58 | 33.49932 | -122.46595 | 40028 ft | 348 kts | 257° |
| 2026-05-04 00:58 | 33.49136 | -122.52326 | 40015 ft | 348 kts | 257° |
| 2026-05-04 00:59 | 33.48328 | -122.58049 | 40026 ft | 348 kts | 256° |
| 2026-05-04 00:59 | 33.47222 | -122.63686 | 40024 ft | 347 kts | 253° |
| 2026-05-04 01:00 | 33.46070 | -122.69247 | 40015 ft | 346 kts | 253° |
| 2026-05-04 01:00 | 33.44906 | -122.74870 | 40030 ft | 347 kts | 253° |
| 2026-05-04 01:01 | 33.43746 | -122.80486 | 40011 ft | 349 kts | 253° |
| 2026-05-04 01:01 | 33.42562 | -122.86188 | 40031 ft | 355 kts | 253° |
| 2026-05-04 01:02 | 33.41369 | -122.91927 | 40021 ft | 357 kts | 253° |
| 2026-05-04 01:02 | 33.40166 | -122.97694 | 39961 ft | 358 kts | 253° |
| 2026-05-04 01:03 | 33.38967 | -123.03460 | 39996 ft | 356 kts | 253° |
| 2026-05-04 01:03 | 33.37761 | -123.09216 | 40024 ft | 357 kts | 253° |
| 2026-05-04 01:04 | 33.36554 | -123.14970 | 40025 ft | 356 kts | 253° |
| 2026-05-04 01:04 | 33.35347 | -123.20712 | 40015 ft | 355 kts | 253° |
| 2026-05-04 01:05 | 33.34143 | -123.26423 | 40029 ft | 357 kts | 253° |
| 2026-05-04 01:05 | 33.32913 | -123.32246 | 40025 ft | 364 kts | 252° |
| 2026-05-04 01:06 | 33.31664 | -123.38136 | 40019 ft | 366 kts | 252° |
| 2026-05-04 01:06 | 33.30413 | -123.44032 | 40021 ft | 365 kts | 252° |
| 2026-05-04 01:07 | 33.29157 | -123.49932 | 40030 ft | 365 kts | 252° |
| 2026-05-04 01:07 | 33.27902 | -123.55813 | 40016 ft | 365 kts | 252° |
| 2026-05-04 01:08 | 33.26643 | -123.61698 | 40027 ft | 366 kts | 252° |
| 2026-05-04 01:08 | 33.25385 | -123.67564 | 40022 ft | 366 kts | 252° |
| 2026-05-04 01:09 | 33.24124 | -123.73430 | 40017 ft | 365 kts | 252° |
| 2026-05-04 01:09 | 33.22883 | -123.79202 | 40021 ft | 346 kts | 252° |
| 2026-05-04 01:10 | 33.21698 | -123.84688 | 40016 ft | 342 kts | 252° |
| 2026-05-04 01:10 | 33.20489 | -123.90258 | 40033 ft | 348 kts | 252° |
| 2026-05-04 01:11 | 33.19276 | -123.95842 | 40017 ft | 348 kts | 252° |
| 2026-05-04 01:11 | 33.18060 | -124.01431 | 40023 ft | 347 kts | 252° |
| 2026-05-04 01:12 | 33.16849 | -124.06985 | 40028 ft | 348 kts | 252° |
| 2026-05-04 01:12 | 33.15629 | -124.12568 | 40015 ft | 347 kts | 252° |
| 2026-05-04 01:13 | 33.14403 | -124.18163 | 40028 ft | 348 kts | 252° |
| 2026-05-04 01:13 | 33.13182 | -124.23723 | 40021 ft | 347 kts | 252° |
| 2026-05-04 01:14 | 33.11956 | -124.29295 | 40016 ft | 348 kts | 252° |
| 2026-05-04 01:14 | 33.10711 | -124.34933 | 40033 ft | 353 kts | 252° |
| 2026-05-04 01:15 | 33.09460 | -124.40592 | 40018 ft | 353 kts | 252° |
| 2026-05-04 01:15 | 33.08206 | -124.46254 | 40020 ft | 353 kts | 252° |
| 2026-05-04 01:16 | 33.06957 | -124.51874 | 40028 ft | 353 kts | 252° |
| 2026-05-04 01:16 | 33.05698 | -124.57520 | 40015 ft | 352 kts | 252° |
| 2026-05-04 01:17 | 33.04434 | -124.63167 | 40027 ft | 353 kts | 252° |
| 2026-05-04 01:17 | 33.03159 | -124.68842 | 39809 ft | 359 kts | 252° |
| 2026-05-04 01:17 | 33.02525 | -124.71690 | 39918 ft | 352 kts | 252° |
| 2026-05-04 01:18 | 33.01892 | -124.74507 | 39976 ft | 351 kts | 252° |
| 2026-05-04 01:18 | 33.00615 | -124.80161 | 40004 ft | 357 kts | 252° |
| 2026-05-04 01:19 | 32.99312 | -124.85929 | 40023 ft | 364 kts | 252° |
| 2026-05-04 01:19 | 32.97994 | -124.91754 | 40025 ft | 366 kts | 252° |
| 2026-05-04 01:20 | 32.96670 | -124.97596 | 40014 ft | 365 kts | 252° |
| 2026-05-04 01:20 | 32.95339 | -125.03450 | 40027 ft | 366 kts | 252° |
| 2026-05-04 01:21 | 32.94005 | -125.09303 | 40021 ft | 366 kts | 252° |
| 2026-05-04 01:21 | 32.92669 | -125.15155 | 40017 ft | 365 kts | 252° |
| 2026-05-04 01:22 | 32.91330 | -125.21003 | 40029 ft | 366 kts | 252° |
| 2026-05-04 01:22 | 32.89987 | -125.26856 | 40016 ft | 365 kts | 252° |
| 2026-05-04 01:23 | 32.88645 | -125.32683 | 40019 ft | 373 kts | 252° |
| 2026-05-04 01:23 | 32.87259 | -125.38694 | 40031 ft | 378 kts | 252° |
| 2026-05-04 01:24 | 32.85855 | -125.44771 | 40017 ft | 381 kts | 252° |
| 2026-05-04 01:24 | 32.84455 | -125.50818 | 40021 ft | 381 kts | 252° |
| 2026-05-04 01:25 | 32.83044 | -125.56897 | 40028 ft | 381 kts | 252° |
| 2026-05-04 01:25 | 32.81634 | -125.62954 | 40015 ft | 381 kts | 252° |
| 2026-05-04 01:26 | 32.80214 | -125.69038 | 40026 ft | 380 kts | 252° |
| 2026-05-04 01:26 | 32.78798 | -125.75094 | 40023 ft | 380 kts | 252° |
| 2026-05-04 01:27 | 32.77367 | -125.81194 | 40016 ft | 386 kts | 252° |
| 2026-05-04 01:27 | 32.75925 | -125.87329 | 40030 ft | 389 kts | 252° |
| 2026-05-04 01:28 | 32.74468 | -125.93517 | 40015 ft | 388 kts | 252° |
| 2026-05-04 01:28 | 32.73034 | -125.99622 | 40028 ft | 373 kts | 251° |
| 2026-05-04 01:29 | 32.71654 | -126.05451 | 40013 ft | 365 kts | 251° |
| 2026-05-04 01:29 | 32.70263 | -126.11289 | 40033 ft | 371 kts | 251° |
| 2026-05-04 01:30 | 32.68860 | -126.17186 | 40019 ft | 371 kts | 251° |
| 2026-05-04 01:30 | 32.67451 | -126.23095 | 40021 ft | 371 kts | 251° |
| 2026-05-04 01:31 | 32.66036 | -126.29007 | 40022 ft | 375 kts | 251° |
| 2026-05-04 01:31 | 32.64596 | -126.35020 | 40021 ft | 380 kts | 251° |
| 2026-05-04 01:32 | 32.63160 | -126.41015 | 40018 ft | 380 kts | 251° |
| 2026-05-04 01:32 | 32.61701 | -126.47055 | 39952 ft | 383 kts | 254° |
| 2026-05-04 01:32 | 32.60969 | -126.50115 | 40081 ft | 384 kts | 252° |
| 2026-05-04 01:33 | 32.60241 | -126.53162 | 40061 ft | 384 kts | 251° |
| 2026-05-04 01:33 | 32.58781 | -126.59204 | 40033 ft | 379 kts | 251° |
| 2026-05-04 01:34 | 32.57324 | -126.65210 | 40019 ft | 379 kts | 251° |
| 2026-05-04 01:34 | 32.55869 | -126.71195 | 40022 ft | 380 kts | 251° |
| 2026-05-04 01:35 | 32.54397 | -126.77244 | 40027 ft | 380 kts | 251° |
| 2026-05-04 01:35 | 32.52925 | -126.83271 | 40016 ft | 382 kts | 252° |
| 2026-05-04 01:36 | 32.51452 | -126.89303 | 40029 ft | 383 kts | 252° |
| 2026-05-04 01:36 | 32.49968 | -126.95364 | 40018 ft | 383 kts | 252° |
| 2026-05-04 01:37 | 32.48485 | -127.01404 | 40021 ft | 382 kts | 252° |
| 2026-05-04 01:37 | 32.46995 | -127.07461 | 40028 ft | 383 kts | 252° |
| 2026-05-04 01:38 | 32.45500 | -127.13522 | 40015 ft | 382 kts | 252° |
| 2026-05-04 01:38 | 32.44005 | -127.19570 | 40027 ft | 383 kts | 252° |
| 2026-05-04 01:39 | 32.42506 | -127.25620 | 40022 ft | 383 kts | 251° |
| 2026-05-04 01:39 | 32.41004 | -127.31669 | 40019 ft | 389 kts | 251° |
| 2026-05-04 01:40 | 32.39466 | -127.37845 | 40030 ft | 392 kts | 251° |
| 2026-05-04 01:40 | 32.37919 | -127.44045 | 40015 ft | 392 kts | 251° |
| 2026-05-04 01:41 | 32.36636 | -127.49180 | 40023 ft | 391 kts | 251° |
| 2026-05-04 01:41 | 32.35091 | -127.55345 | 40027 ft | 391 kts | 251° |
| 2026-05-04 01:42 | 32.33545 | -127.61504 | 40015 ft | 390 kts | 251° |
| 2026-05-04 01:42 | 32.31992 | -127.67675 | 40029 ft | 393 kts | 251° |
| 2026-05-04 01:43 | 32.30430 | -127.73866 | 40020 ft | 392 kts | 251° |
| 2026-05-04 01:43 | 32.28878 | -127.80008 | 40009 ft | 394 kts | 251° |
| 2026-05-04 01:44 | 32.27292 | -127.86264 | 40034 ft | 400 kts | 251° |
| 2026-05-04 01:44 | 32.25686 | -127.92585 | 40021 ft | 403 kts | 251° |
| 2026-05-04 01:45 | 32.24071 | -127.98935 | 40026 ft | 398 kts | 251° |
| 2026-05-04 01:45 | 32.23290 | -128.02006 | 40027 ft | 384 kts | 251° |
| 2026-05-04 01:45 | 32.21778 | -128.07932 | 40013 ft | 375 kts | 251° |
| 2026-05-04 01:46 | 32.20260 | -128.13848 | 40034 ft | 381 kts | 251° |
| 2026-05-04 01:46 | 32.18709 | -128.19891 | 40019 ft | 383 kts | 251° |
| 2026-05-04 01:47 | 32.17174 | -128.25863 | 40020 ft | 382 kts | 250° |
| 2026-05-04 01:47 | 32.15609 | -128.31889 | 39969 ft | 387 kts | 254° |
| 2026-05-04 01:48 | 32.14043 | -128.38021 | 40040 ft | 394 kts | 251° |
| 2026-05-04 01:48 | 32.12437 | -128.44217 | 40022 ft | 395 kts | 251° |
| 2026-05-04 01:49 | 32.10832 | -128.50399 | 40016 ft | 393 kts | 251° |
| 2026-05-04 01:49 | 32.09222 | -128.56590 | 40031 ft | 394 kts | 251° |
| 2026-05-04 01:50 | 32.07624 | -128.62724 | 40018 ft | 394 kts | 251° |
| 2026-05-04 01:50 | 32.06002 | -128.68938 | 40022 ft | 394 kts | 251° |
| 2026-05-04 01:51 | 32.04394 | -128.75079 | 40028 ft | 395 kts | 251° |
| 2026-05-04 01:51 | 32.02771 | -128.81269 | 40015 ft | 394 kts | 251° |
| 2026-05-04 01:52 | 32.01150 | -128.87437 | 40027 ft | 394 kts | 251° |
| 2026-05-04 01:52 | 31.99522 | -128.93616 | 40023 ft | 394 kts | 251° |
| 2026-05-04 01:53 | 31.97905 | -128.99744 | 40016 ft | 394 kts | 251° |
| 2026-05-04 01:53 | 31.96272 | -129.05915 | 40030 ft | 395 kts | 251° |
| 2026-05-04 01:54 | 31.94634 | -129.12093 | 40018 ft | 394 kts | 251° |
| 2026-05-04 01:54 | 31.93001 | -129.18241 | 40021 ft | 394 kts | 251° |
| 2026-05-04 01:55 | 31.91369 | -129.24368 | 40029 ft | 395 kts | 251° |
| 2026-05-04 01:55 | 31.89724 | -129.30533 | 40015 ft | 394 kts | 251° |
| 2026-05-04 01:56 | 31.88079 | -129.36685 | 40027 ft | 394 kts | 251° |
| 2026-05-04 01:56 | 31.86430 | -129.42837 | 40023 ft | 394 kts | 250° |
| 2026-05-04 01:57 | 31.84779 | -129.48984 | 40017 ft | 393 kts | 250° |
| 2026-05-04 01:57 | 31.83119 | -129.55149 | 40030 ft | 395 kts | 250° |
| 2026-05-04 01:58 | 31.81470 | -129.61263 | 40018 ft | 394 kts | 250° |
| 2026-05-04 01:58 | 31.79812 | -129.67396 | 40021 ft | 394 kts | 250° |
| 2026-05-04 01:59 | 31.78144 | -129.73552 | 40027 ft | 394 kts | 250° |
| 2026-05-04 01:59 | 31.76488 | -129.79654 | 40015 ft | 394 kts | 250° |
| 2026-05-04 02:00 | 31.74819 | -129.85789 | 40026 ft | 395 kts | 250° |
| 2026-05-04 02:00 | 31.73141 | -129.91942 | 40022 ft | 394 kts | 250° |
| 2026-05-04 02:01 | 31.71509 | -129.97952 | 40011 ft | 374 kts | 249° |
| 2026-05-04 02:01 | 31.69936 | -130.03689 | 40015 ft | 369 kts | 249° |
| 2026-05-04 02:02 | 31.68351 | -130.09446 | 40033 ft | 374 kts | 249° |
| 2026-05-04 02:02 | 31.66737 | -130.15313 | 40024 ft | 376 kts | 249° |
| 2026-05-04 02:03 | 31.65137 | -130.21125 | 40019 ft | 375 kts | 249° |
| 2026-05-04 02:03 | 31.63529 | -130.26950 | 40030 ft | 376 kts | 248° |
| 2026-05-04 02:04 | 31.61919 | -130.32772 | 40019 ft | 375 kts | 248° |
| 2026-05-04 02:04 | 31.60301 | -130.38611 | 40020 ft | 376 kts | 248° |
| 2026-05-04 02:05 | 31.58684 | -130.44435 | 40028 ft | 375 kts | 248° |
| 2026-05-04 02:05 | 31.57075 | -130.50220 | 40015 ft | 375 kts | 248° |
| 2026-05-04 02:06 | 31.55456 | -130.56029 | 40026 ft | 375 kts | 248° |
| 2026-05-04 02:06 | 31.53816 | -130.61904 | 40024 ft | 376 kts | 248° |
| 2026-05-04 02:07 | 31.52199 | -130.67684 | 40016 ft | 374 kts | 248° |
| 2026-05-04 02:07 | 31.50570 | -130.73492 | 40030 ft | 375 kts | 248° |
| 2026-05-04 02:08 | 31.48937 | -130.79307 | 40018 ft | 375 kts | 248° |
| 2026-05-04 02:08 | 31.47302 | -130.85118 | 40021 ft | 375 kts | 248° |
| 2026-05-04 02:09 | 31.45662 | -130.90932 | 40029 ft | 376 kts | 248° |
| 2026-05-04 02:09 | 31.44029 | -130.96713 | 40015 ft | 375 kts | 248° |
| 2026-05-04 02:10 | 31.42384 | -131.02522 | 40025 ft | 375 kts | 248° |
| 2026-05-04 02:10 | 31.40748 | -131.08292 | 40024 ft | 375 kts | 248° |
| 2026-05-04 02:11 | 31.39102 | -131.14082 | 40016 ft | 375 kts | 248° |
| 2026-05-04 02:11 | 31.37451 | -131.19878 | 40030 ft | 375 kts | 248° |
| 2026-05-04 02:12 | 31.35796 | -131.25683 | 40018 ft | 375 kts | 248° |
| 2026-05-04 02:12 | 31.34143 | -131.31465 | 40022 ft | 375 kts | 248° |
| 2026-05-04 02:13 | 31.32496 | -131.37217 | 40030 ft | 375 kts | 248° |
| 2026-05-04 02:13 | 31.30836 | -131.43001 | 40015 ft | 374 kts | 248° |
| 2026-05-04 02:14 | 31.29175 | -131.48779 | 40027 ft | 375 kts | 248° |
| 2026-05-04 02:14 | 31.27507 | -131.54570 | 40023 ft | 375 kts | 248° |
| 2026-05-04 02:15 | 31.25841 | -131.60342 | 40017 ft | 374 kts | 248° |
| 2026-05-04 02:15 | 31.24170 | -131.66121 | 40029 ft | 375 kts | 248° |
| 2026-05-04 02:16 | 31.22495 | -131.71903 | 40018 ft | 375 kts | 248° |
| 2026-05-04 02:16 | 31.20832 | -131.77636 | 40022 ft | 375 kts | 248° |
| 2026-05-04 02:17 | 31.19153 | -131.83415 | 40031 ft | 373 kts | 247° |
| 2026-05-04 02:17 | 31.17507 | -131.89075 | 40033 ft | 364 kts | 247° |
| 2026-05-04 02:18 | 31.16705 | -131.91838 | 40021 ft | 353 kts | 246° |
| 2026-05-04 02:18 | 31.15921 | -131.94525 | 40009 ft | 348 kts | 246° |
| 2026-05-04 02:18 | 31.14340 | -131.99913 | 40029 ft | 352 kts | 246° |
| 2026-05-04 02:19 | 31.12741 | -132.05360 | 40023 ft | 355 kts | 246° |
| 2026-05-04 02:19 | 31.11145 | -132.10799 | 40016 ft | 354 kts | 246° |
| 2026-05-04 02:20 | 31.09556 | -132.16203 | 40029 ft | 354 kts | 246° |
| 2026-05-04 02:20 | 31.07952 | -132.21647 | 40019 ft | 354 kts | 246° |
| 2026-05-04 02:21 | 31.06348 | -132.27079 | 40021 ft | 354 kts | 246° |
| 2026-05-04 02:21 | 31.04748 | -132.32488 | 40029 ft | 355 kts | 246° |
| 2026-05-04 02:22 | 31.03135 | -132.37935 | 40016 ft | 354 kts | 246° |
| 2026-05-04 02:22 | 31.01524 | -132.43364 | 40025 ft | 354 kts | 246° |
| 2026-05-04 02:23 | 30.99919 | -132.48765 | 40025 ft | 355 kts | 246° |
| 2026-05-04 02:23 | 30.98305 | -132.54183 | 40016 ft | 353 kts | 246° |
| 2026-05-04 02:24 | 30.96688 | -132.59606 | 40029 ft | 355 kts | 246° |
| 2026-05-04 02:24 | 30.95064 | -132.65041 | 40019 ft | 354 kts | 246° |
| 2026-05-04 02:25 | 30.93717 | -132.69540 | 40018 ft | 354 kts | 246° |
| 2026-05-04 02:25 | 30.92096 | -132.74950 | 40030 ft | 354 kts | 246° |
| 2026-05-04 02:26 | 30.90469 | -132.80369 | 40016 ft | 353 kts | 246° |
| 2026-05-04 02:26 | 30.88842 | -132.85777 | 40025 ft | 354 kts | 246° |
| 2026-05-04 02:27 | 30.87211 | -132.91187 | 40025 ft | 354 kts | 246° |
| 2026-05-04 02:27 | 30.85579 | -132.96596 | 40016 ft | 353 kts | 246° |
| 2026-05-04 02:28 | 30.83940 | -133.02017 | 40029 ft | 355 kts | 246° |
| 2026-05-04 02:28 | 30.82311 | -133.07397 | 40019 ft | 353 kts | 246° |
| 2026-05-04 02:29 | 30.80670 | -133.12804 | 40021 ft | 353 kts | 246° |
| 2026-05-04 02:29 | 30.79037 | -133.18175 | 40028 ft | 354 kts | 246° |
| 2026-05-04 02:30 | 30.77396 | -133.23570 | 40015 ft | 354 kts | 246° |
| 2026-05-04 02:30 | 30.75751 | -133.28963 | 40026 ft | 354 kts | 246° |
| 2026-05-04 02:31 | 30.74096 | -133.34379 | 40023 ft | 354 kts | 246° |
| 2026-05-04 02:31 | 30.72449 | -133.39763 | 40016 ft | 353 kts | 246° |
| 2026-05-04 02:32 | 30.70771 | -133.45153 | 40012 ft | 360 kts | 253° |
| 2026-05-04 02:32 | 30.69080 | -133.50719 | 39766 ft | 375 kts | 253° |
| 2026-05-04 02:33 | 30.68197 | -133.53572 | 39926 ft | 376 kts | 255° |
| 2026-05-04 02:33 | 30.67305 | -133.56485 | 39977 ft | 379 kts | 254° |
| 2026-05-04 02:33 | 30.65528 | -133.62296 | 39976 ft | 388 kts | 252° |
| 2026-05-04 02:34 | 30.63693 | -133.68258 | 39987 ft | 396 kts | 251° |
| 2026-05-04 02:34 | 30.62752 | -133.71303 | 39705 ft | 409 kts | 251° |
| 2026-05-04 02:34 | 30.61772 | -133.74467 | 39512 ft | 419 kts | 251° |
| 2026-05-04 02:35 | 30.60788 | -133.77636 | 39783 ft | 416 kts | 250° |
| 2026-05-04 02:35 | 30.59804 | -133.80800 | 39942 ft | 417 kts | 251° |
| 2026-05-04 02:35 | 30.57820 | -133.87182 | 40031 ft | 424 kts | 251° |
| 2026-05-04 02:36 | 30.55812 | -133.93640 | 40030 ft | 433 kts | 251° |
| 2026-05-04 02:36 | 30.53741 | -134.00283 | 40023 ft | 442 kts | 251° |
| 2026-05-04 02:37 | 30.51625 | -134.07056 | 40019 ft | 451 kts | 251° |
| 2026-05-04 02:37 | 30.49459 | -134.13976 | 40027 ft | 459 kts | 251° |
| 2026-05-04 02:38 | 30.47254 | -134.21010 | 40021 ft | 468 kts | 251° |
| 2026-05-04 02:38 | 30.45012 | -134.28134 | 40020 ft | 477 kts | 251° |
| 2026-05-04 02:39 | 30.42711 | -134.35434 | 40026 ft | 487 kts | 251° |
| 2026-05-04 02:39 | 30.40364 | -134.42871 | 40017 ft | 494 kts | 251° |
| 2026-05-04 02:40 | 30.37992 | -134.50362 | 40021 ft | 494 kts | 251° |
| 2026-05-04 02:40 | 30.35622 | -134.57831 | 40028 ft | 493 kts | 251° |
| 2026-05-04 02:41 | 30.33266 | -134.65244 | 40016 ft | 493 kts | 251° |
| 2026-05-04 02:41 | 30.30891 | -134.72693 | 40024 ft | 493 kts | 251° |
| 2026-05-04 02:42 | 30.28510 | -134.80144 | 40023 ft | 495 kts | 251° |
| 2026-05-04 02:42 | 30.26114 | -134.87631 | 40017 ft | 497 kts | 251° |
| 2026-05-04 02:43 | 30.23710 | -134.95123 | 40028 ft | 496 kts | 251° |
| 2026-05-04 02:43 | 30.21301 | -135.02622 | 40018 ft | 495 kts | 250° |
| 2026-05-04 02:44 | 30.18909 | -135.10038 | 40021 ft | 495 kts | 250° |
| 2026-05-04 02:44 | 30.16504 | -135.17482 | 40027 ft | 496 kts | 250° |
| 2026-05-04 02:45 | 30.14082 | -135.24962 | 40015 ft | 495 kts | 250° |
| 2026-05-04 02:45 | 30.11653 | -135.32438 | 40025 ft | 500 kts | 251° |
| 2026-05-04 02:46 | 30.09192 | -135.40015 | 40027 ft | 505 kts | 251° |
| 2026-05-04 02:46 | 30.06727 | -135.47578 | 40014 ft | 503 kts | 250° |
| 2026-05-04 02:47 | 30.04256 | -135.55138 | 40028 ft | 504 kts | 250° |
| 2026-05-04 02:47 | 30.01803 | -135.62631 | 40201 ft | 482 kts | 250° |
| 2026-05-04 02:48 | 30.00630 | -135.66197 | 39916 ft | 467 kts | 250° |
| 2026-05-04 02:48 | 29.99507 | -135.69615 | 39932 ft | 457 kts | 250° |
| 2026-05-04 02:48 | 29.97236 | -135.76529 | 40003 ft | 464 kts | 251° |
| 2026-05-04 02:49 | 29.94922 | -135.83559 | 40021 ft | 473 kts | 251° |
| 2026-05-04 02:49 | 29.92555 | -135.90731 | 40030 ft | 482 kts | 251° |
| 2026-05-04 02:50 | 29.90140 | -135.98031 | 40020 ft | 491 kts | 250° |
| 2026-05-04 02:50 | 29.87684 | -136.05438 | 40021 ft | 500 kts | 250° |
| 2026-05-04 02:51 | 29.85191 | -136.12940 | 40028 ft | 509 kts | 250° |
| 2026-05-04 02:51 | 29.82640 | -136.20599 | 40013 ft | 509 kts | 250° |
| 2026-05-04 02:52 | 29.80100 | -136.28204 | 40024 ft | 508 kts | 250° |
| 2026-05-04 02:52 | 29.77565 | -136.35781 | 40028 ft | 511 kts | 250° |
| 2026-05-04 02:53 | 29.75005 | -136.43416 | 40015 ft | 509 kts | 250° |
| 2026-05-04 02:53 | 29.72458 | -136.51001 | 40029 ft | 505 kts | 250° |
| 2026-05-04 02:54 | 29.69932 | -136.58501 | 40017 ft | 500 kts | 250° |
| 2026-05-04 02:54 | 29.67420 | -136.65940 | 40028 ft | 504 kts | 250° |
| 2026-05-04 02:55 | 29.63607 | -136.77207 | 40015 ft | 503 kts | 250° |
| 2026-05-04 02:56 | 29.61051 | -136.84734 | 40025 ft | 510 kts | 250° |
| 2026-05-04 02:56 | 29.58460 | -136.92358 | 40027 ft | 514 kts | 250° |
| 2026-05-04 02:57 | 29.55855 | -137.00003 | 40015 ft | 512 kts | 250° |
| 2026-05-04 02:57 | 29.53247 | -137.07636 | 40028 ft | 513 kts | 250° |
| 2026-05-04 02:58 | 29.50636 | -137.15265 | 40021 ft | 513 kts | 250° |
| 2026-05-04 02:58 | 29.48033 | -137.22851 | 40018 ft | 513 kts | 250° |
| 2026-05-04 02:59 | 29.45408 | -137.30485 | 40028 ft | 514 kts | 250° |
| 2026-05-04 02:59 | 29.42765 | -137.38157 | 40018 ft | 520 kts | 250° |
| 2026-05-04 03:00 | 29.40102 | -137.45871 | 40023 ft | 519 kts | 250° |
| 2026-05-04 03:00 | 29.37456 | -137.53517 | 40027 ft | 519 kts | 250° |
| 2026-05-04 03:01 | 29.34788 | -137.61209 | 40016 ft | 519 kts | 250° |
| 2026-05-04 03:01 | 29.32110 | -137.68913 | 40027 ft | 519 kts | 250° |
| 2026-05-04 03:02 | 29.29436 | -137.76590 | 40022 ft | 519 kts | 250° |
| 2026-05-04 03:02 | 29.26770 | -137.84228 | 40017 ft | 518 kts | 250° |
| 2026-05-04 03:03 | 29.24083 | -137.91906 | 40027 ft | 519 kts | 250° |
| 2026-05-04 03:03 | 29.21397 | -137.99568 | 40015 ft | 519 kts | 250° |
| 2026-05-04 03:04 | 29.18696 | -138.07253 | 40027 ft | 519 kts | 250° |
| 2026-05-04 03:04 | 29.16021 | -138.14852 | 40021 ft | 519 kts | 250° |
| 2026-05-04 03:05 | 29.13316 | -138.22516 | 40018 ft | 518 kts | 250° |
| 2026-05-04 03:05 | 29.10610 | -138.30170 | 40029 ft | 519 kts | 249° |
| 2026-05-04 03:06 | 29.07896 | -138.37830 | 40017 ft | 519 kts | 249° |
| 2026-05-04 03:06 | 29.05183 | -138.45469 | 40025 ft | 519 kts | 249° |
| 2026-05-04 03:07 | 29.02462 | -138.53115 | 40025 ft | 519 kts | 249° |
| 2026-05-04 03:07 | 28.99759 | -138.60695 | 40016 ft | 519 kts | 249° |
| 2026-05-04 03:08 | 28.97473 | -138.67092 | 40027 ft | 519 kts | 249° |
| 2026-05-04 03:08 | 28.94295 | -138.75969 | 40020 ft | 519 kts | 249° |
| 2026-05-04 03:09 | 28.91555 | -138.83603 | 40020 ft | 519 kts | 249° |
| 2026-05-04 03:09 | 28.89281 | -138.89926 | 40029 ft | 519 kts | 249° |
| 2026-05-04 03:10 | 28.86530 | -138.97563 | 40017 ft | 519 kts | 249° |
| 2026-05-04 03:10 | 28.83794 | -139.05141 | 40023 ft | 519 kts | 249° |
| 2026-05-04 03:11 | 28.81042 | -139.12750 | 40026 ft | 519 kts | 249° |
| 2026-05-04 03:11 | 28.78283 | -139.20359 | 40016 ft | 519 kts | 249° |
| 2026-05-04 03:12 | 28.75523 | -139.27957 | 40028 ft | 519 kts | 249° |
| 2026-05-04 03:12 | 28.72757 | -139.35556 | 40021 ft | 519 kts | 249° |
| 2026-05-04 03:13 | 28.69983 | -139.43153 | 40019 ft | 519 kts | 249° |
| 2026-05-04 03:13 | 28.67208 | -139.50727 | 40029 ft | 519 kts | 249° |
| 2026-05-04 03:14 | 28.64418 | -139.58323 | 40016 ft | 519 kts | 249° |
| 2026-05-04 03:14 | 28.61628 | -139.65900 | 40025 ft | 519 kts | 249° |
| 2026-05-04 03:15 | 28.58846 | -139.73442 | 40024 ft | 519 kts | 249° |
| 2026-05-04 03:15 | 28.56054 | -139.80995 | 40016 ft | 519 kts | 249° |
| 2026-05-04 03:16 | 28.53251 | -139.88563 | 40029 ft | 519 kts | 249° |
| 2026-05-04 03:16 | 28.50433 | -139.96156 | 40019 ft | 519 kts | 249° |
| 2026-05-04 03:17 | 28.47623 | -140.03711 | 40021 ft | 519 kts | 249° |
| 2026-05-04 03:17 | 28.44809 | -140.11262 | 40028 ft | 519 kts | 249° |
| 2026-05-04 03:18 | 28.41998 | -140.18789 | 40016 ft | 519 kts | 249° |
| 2026-05-04 03:18 | 28.39177 | -140.26331 | 40026 ft | 519 kts | 248° |
| 2026-05-04 03:19 | 28.36344 | -140.33888 | 40023 ft | 519 kts | 248° |
| 2026-05-04 03:19 | 28.33526 | -140.41387 | 40017 ft | 519 kts | 248° |
| 2026-05-04 03:20 | 28.30688 | -140.48929 | 40029 ft | 519 kts | 248° |
| 2026-05-04 03:20 | 28.27834 | -140.56495 | 40016 ft | 519 kts | 248° |
| 2026-05-04 03:21 | 28.25004 | -140.63983 | 40009 ft | 519 kts | 248° |
| 2026-05-04 03:21 | 28.22159 | -140.71498 | 40026 ft | 519 kts | 248° |
| 2026-05-04 03:22 | 28.19297 | -140.79041 | 40020 ft | 519 kts | 248° |
| 2026-05-04 03:22 | 28.16440 | -140.86556 | 40007 ft | 519 kts | 248° |
| 2026-05-04 03:23 | 28.13574 | -140.94079 | 40023 ft | 519 kts | 248° |
| 2026-05-04 03:23 | 28.10732 | -141.01527 | 40016 ft | 519 kts | 248° |
| 2026-05-04 03:24 | 28.07856 | -141.09049 | 39990 ft | 519 kts | 248° |
| 2026-05-04 03:24 | 28.04982 | -141.16549 | 39990 ft | 518 kts | 248° |
| 2026-05-04 03:25 | 28.02121 | -141.24002 | 39996 ft | 519 kts | 248° |
| 2026-05-04 03:25 | 27.99240 | -141.31493 | 39980 ft | 519 kts | 248° |
| 2026-05-04 03:26 | 27.96354 | -141.38981 | 39988 ft | 519 kts | 248° |
| 2026-05-04 03:26 | 27.93469 | -141.46453 | 39994 ft | 519 kts | 248° |
| 2026-05-04 03:27 | 27.90566 | -141.53958 | 39978 ft | 519 kts | 248° |
| 2026-05-04 03:27 | 27.87667 | -141.61435 | 39986 ft | 519 kts | 248° |
| 2026-05-04 03:28 | 27.84766 | -141.68905 | 39986 ft | 519 kts | 248° |
| 2026-05-04 03:28 | 27.81874 | -141.76338 | 39978 ft | 519 kts | 248° |
| 2026-05-04 03:29 | 27.78962 | -141.83806 | 39990 ft | 519 kts | 248° |
| 2026-05-04 03:29 | 27.76047 | -141.91268 | 39982 ft | 519 kts | 248° |
| 2026-05-04 03:30 | 27.73131 | -141.98721 | 39981 ft | 519 kts | 248° |
| 2026-05-04 03:30 | 27.70205 | -142.06183 | 39991 ft | 519 kts | 248° |
| 2026-05-04 03:31 | 27.67283 | -142.13622 | 39978 ft | 519 kts | 248° |
| 2026-05-04 03:31 | 27.64368 | -142.21027 | 39987 ft | 519 kts | 248° |
| 2026-05-04 03:32 | 27.61420 | -142.28503 | 39985 ft | 519 kts | 248° |
| 2026-05-04 03:32 | 27.58483 | -142.35937 | 39989 ft | 519 kts | 247° |
| 2026-05-04 03:32 | 27.57033 | -142.39600 | 40138 ft | 505 kts | 248° |
| 2026-05-04 03:33 | 27.55618 | -142.43166 | 40211 ft | 498 kts | 248° |
| 2026-05-04 03:33 | 27.54195 | -142.46760 | 40060 ft | 506 kts | 248° |
| 2026-05-04 03:33 | 27.52749 | -142.50412 | 39993 ft | 513 kts | 247° |
| 2026-05-04 03:34 | 27.49810 | -142.57817 | 40018 ft | 520 kts | 247° |
| 2026-05-04 03:34 | 27.46845 | -142.65263 | 40027 ft | 520 kts | 247° |
| 2026-05-04 03:35 | 27.43908 | -142.72626 | 40017 ft | 519 kts | 247° |
| 2026-05-04 03:35 | 27.40941 | -142.80053 | 40025 ft | 519 kts | 247° |
| 2026-05-04 03:36 | 27.37976 | -142.87460 | 40025 ft | 520 kts | 247° |
| 2026-05-04 03:36 | 27.34997 | -142.94890 | 40016 ft | 519 kts | 247° |
| 2026-05-04 03:37 | 27.32040 | -143.02250 | 40028 ft | 519 kts | 247° |
| 2026-05-04 03:37 | 27.29061 | -143.09652 | 40019 ft | 520 kts | 247° |
| 2026-05-04 03:38 | 27.26076 | -143.17055 | 40021 ft | 519 kts | 247° |
| 2026-05-04 03:38 | 27.23085 | -143.24458 | 40028 ft | 520 kts | 247° |
| 2026-05-04 03:39 | 27.20106 | -143.31819 | 40016 ft | 519 kts | 247° |
| 2026-05-04 03:39 | 27.17114 | -143.39200 | 40026 ft | 519 kts | 247° |
| 2026-05-04 03:40 | 27.14109 | -143.46599 | 40024 ft | 520 kts | 247° |
| 2026-05-04 03:40 | 27.11109 | -143.53971 | 40017 ft | 519 kts | 247° |
| 2026-05-04 03:41 | 27.08097 | -143.61359 | 40029 ft | 519 kts | 247° |
| 2026-05-04 03:41 | 27.05088 | -143.68727 | 40017 ft | 520 kts | 247° |
| 2026-05-04 03:42 | 27.02083 | -143.76072 | 40023 ft | 519 kts | 247° |
| 2026-05-04 03:42 | 26.99063 | -143.83440 | 40027 ft | 520 kts | 247° |
| 2026-05-04 03:43 | 26.96046 | -143.90787 | 40015 ft | 519 kts | 246° |
| 2026-05-04 03:43 | 26.93016 | -143.98154 | 40028 ft | 519 kts | 246° |
| 2026-05-04 03:44 | 26.89987 | -144.05504 | 40021 ft | 520 kts | 246° |
| 2026-05-04 03:44 | 26.86962 | -144.12829 | 40019 ft | 519 kts | 246° |
| 2026-05-04 03:45 | 26.83921 | -144.20183 | 40029 ft | 520 kts | 246° |
| 2026-05-04 03:45 | 26.80876 | -144.27533 | 40016 ft | 520 kts | 246° |
| 2026-05-04 03:46 | 26.77833 | -144.34863 | 40026 ft | 519 kts | 246° |
| 2026-05-04 03:46 | 26.74786 | -144.42192 | 40024 ft | 520 kts | 246° |
| 2026-05-04 03:47 | 26.71748 | -144.49487 | 40017 ft | 519 kts | 246° |
| 2026-05-04 03:47 | 26.68691 | -144.56812 | 40030 ft | 520 kts | 246° |
| 2026-05-04 03:47 | 26.67177 | -144.60434 | 40206 ft | 502 kts | 246° |
| 2026-05-04 03:48 | 26.65729 | -144.63883 | 40212 ft | 478 kts | 246° |
| 2026-05-04 03:48 | 26.64328 | -144.67219 | 40027 ft | 470 kts | 248° |
| 2026-05-04 03:48 | 26.62938 | -144.70531 | 40002 ft | 475 kts | 249° |
| 2026-05-04 03:49 | 26.60111 | -144.77289 | 40045 ft | 483 kts | 249° |
| 2026-05-04 03:49 | 26.57236 | -144.84156 | 40028 ft | 493 kts | 249° |
| 2026-05-04 03:50 | 26.54327 | -144.91073 | 40013 ft | 494 kts | 249° |
| 2026-05-04 03:50 | 26.51404 | -144.98004 | 40024 ft | 493 kts | 249° |
| 2026-05-04 03:51 | 26.48972 | -145.03763 | 40027 ft | 493 kts | 249° |
| 2026-05-04 03:51 | 26.45547 | -145.11863 | 40015 ft | 493 kts | 249° |
| 2026-05-04 03:52 | 26.43112 | -145.17615 | 40027 ft | 493 kts | 249° |
| 2026-05-04 03:52 | 26.39681 | -145.25702 | 40020 ft | 493 kts | 249° |
| 2026-05-04 03:53 | 26.36756 | -145.32586 | 40020 ft | 493 kts | 249° |
| 2026-05-04 03:53 | 26.34313 | -145.38328 | 40029 ft | 493 kts | 249° |
| 2026-05-04 03:54 | 26.31367 | -145.45237 | 40017 ft | 493 kts | 249° |
| 2026-05-04 03:54 | 26.28419 | -145.52145 | 40023 ft | 493 kts | 249° |
| 2026-05-04 03:55 | 26.25473 | -145.59034 | 40026 ft | 493 kts | 249° |
| 2026-05-04 03:55 | 26.22518 | -145.65933 | 40017 ft | 493 kts | 249° |
| 2026-05-04 03:56 | 26.19581 | -145.72776 | 40026 ft | 487 kts | 249° |
| 2026-05-04 03:56 | 26.16648 | -145.79605 | 40025 ft | 489 kts | 249° |
| 2026-05-04 03:57 | 26.13720 | -145.86412 | 40016 ft | 490 kts | 249° |
| 2026-05-04 03:57 | 26.10777 | -145.93241 | 40028 ft | 489 kts | 249° |
| 2026-05-04 03:58 | 26.06348 | -146.03493 | 40016 ft | 489 kts | 249° |
| 2026-05-04 03:58 | 26.03396 | -146.10316 | 40027 ft | 489 kts | 249° |
| 2026-05-04 03:59 | 26.00441 | -146.17134 | 40023 ft | 490 kts | 249° |
| 2026-05-04 03:59 | 25.97503 | -146.23914 | 40017 ft | 489 kts | 249° |
| 2026-05-04 04:00 | 25.94545 | -146.30730 | 40029 ft | 489 kts | 249° |
| 2026-05-04 04:00 | 25.91581 | -146.37547 | 40018 ft | 489 kts | 249° |
| 2026-05-04 04:01 | 25.88620 | -146.44349 | 40023 ft | 489 kts | 248° |
| 2026-05-04 04:01 | 25.85650 | -146.51160 | 40027 ft | 490 kts | 249° |
| 2026-05-04 04:02 | 25.82685 | -146.57948 | 40015 ft | 489 kts | 249° |
| 2026-05-04 04:02 | 25.79710 | -146.64753 | 40044 ft | 487 kts | 248° |
| 2026-05-04 04:03 | 25.76766 | -146.71469 | 40057 ft | 487 kts | 248° |
| 2026-05-04 04:03 | 25.73790 | -146.78253 | 40025 ft | 490 kts | 248° |
| 2026-05-04 04:04 | 25.70804 | -146.85048 | 40017 ft | 489 kts | 248° |
| 2026-05-04 04:04 | 25.67835 | -146.91782 | 40024 ft | 482 kts | 249° |
| 2026-05-04 04:05 | 25.64905 | -146.98431 | 40024 ft | 482 kts | 249° |
| 2026-05-04 04:05 | 25.61944 | -147.05145 | 40018 ft | 484 kts | 249° |
| 2026-05-04 04:06 | 25.58985 | -147.11838 | 40025 ft | 483 kts | 249° |
| 2026-05-04 04:06 | 25.56017 | -147.18537 | 40024 ft | 484 kts | 249° |
| 2026-05-04 04:07 | 25.53050 | -147.25229 | 40016 ft | 484 kts | 249° |
| 2026-05-04 04:07 | 25.50079 | -147.31918 | 40029 ft | 484 kts | 249° |
| 2026-05-04 04:08 | 25.47125 | -147.38555 | 40020 ft | 484 kts | 249° |
| 2026-05-04 04:08 | 25.44141 | -147.45252 | 40020 ft | 483 kts | 249° |
| 2026-05-04 04:09 | 25.41156 | -147.51942 | 40029 ft | 484 kts | 249° |
| 2026-05-04 04:09 | 25.38192 | -147.58574 | 40016 ft | 484 kts | 249° |
| 2026-05-04 04:10 | 25.35201 | -147.65259 | 40026 ft | 484 kts | 249° |
| 2026-05-04 04:10 | 25.32209 | -147.71931 | 40024 ft | 484 kts | 249° |
| 2026-05-04 04:11 | 25.29215 | -147.78602 | 40016 ft | 484 kts | 249° |
| 2026-05-04 04:11 | 25.26222 | -147.85261 | 40029 ft | 484 kts | 248° |
| 2026-05-04 04:12 | 25.23220 | -147.91926 | 40018 ft | 484 kts | 248° |
| 2026-05-04 04:12 | 25.20220 | -147.98580 | 40022 ft | 484 kts | 248° |
| 2026-05-04 04:13 | 25.17216 | -148.05233 | 40028 ft | 485 kts | 248° |
| 2026-05-04 04:13 | 25.14239 | -148.11796 | 40015 ft | 471 kts | 249° |
| 2026-05-04 04:14 | 25.11354 | -148.18178 | 40018 ft | 464 kts | 247° |
| 2026-05-04 04:14 | 25.08446 | -148.24621 | 40034 ft | 472 kts | 245° |
| 2026-05-04 04:15 | 25.05500 | -148.31096 | 40019 ft | 472 kts | 245° |
| 2026-05-04 04:15 | 25.02576 | -148.37514 | 40020 ft | 467 kts | 245° |
| 2026-05-04 04:16 | 24.99656 | -148.43920 | 40031 ft | 468 kts | 245° |
| 2026-05-04 04:16 | 24.96722 | -148.50352 | 40018 ft | 469 kts | 245° |
| 2026-05-04 04:17 | 24.93793 | -148.56762 | 40023 ft | 468 kts | 245° |
| 2026-05-04 04:17 | 24.90861 | -148.63173 | 40028 ft | 467 kts | 245° |
| 2026-05-04 04:18 | 24.87985 | -148.69449 | 40018 ft | 462 kts | 245° |
| 2026-05-04 04:18 | 24.85053 | -148.75846 | 40031 ft | 469 kts | 245° |
| 2026-05-04 04:19 | 24.82100 | -148.82276 | 40016 ft | 471 kts | 244° |
| 2026-05-04 04:19 | 24.79140 | -148.88710 | 40026 ft | 470 kts | 244° |
| 2026-05-04 04:20 | 24.76185 | -148.95123 | 40022 ft | 471 kts | 244° |
| 2026-05-04 04:20 | 24.73216 | -149.01558 | 40018 ft | 471 kts | 244° |
| 2026-05-04 04:21 | 24.70293 | -149.07881 | 40021 ft | 462 kts | 244° |
| 2026-05-04 04:21 | 24.67386 | -149.14165 | 40022 ft | 461 kts | 245° |
| 2026-05-04 04:22 | 24.64464 | -149.20479 | 40026 ft | 464 kts | 244° |
| 2026-05-04 04:22 | 24.61534 | -149.26796 | 40015 ft | 464 kts | 244° |
| 2026-05-04 04:23 | 24.58599 | -149.33116 | 40028 ft | 463 kts | 244° |
| 2026-05-04 04:23 | 24.55691 | -149.39368 | 40019 ft | 464 kts | 244° |
| 2026-05-04 04:24 | 24.52744 | -149.45693 | 40020 ft | 463 kts | 244° |
| 2026-05-04 04:24 | 24.49809 | -149.51987 | 40029 ft | 463 kts | 244° |
| 2026-05-04 04:25 | 24.46872 | -149.58277 | 40016 ft | 464 kts | 244° |
| 2026-05-04 04:25 | 24.43924 | -149.64579 | 40025 ft | 462 kts | 244° |
| 2026-05-04 04:26 | 24.40978 | -149.70870 | 40025 ft | 463 kts | 244° |
| 2026-05-04 04:26 | 24.38045 | -149.77125 | 40017 ft | 463 kts | 244° |
| 2026-05-04 04:27 | 24.35088 | -149.83427 | 40029 ft | 464 kts | 244° |
| 2026-05-04 04:27 | 24.32137 | -149.89703 | 40020 ft | 467 kts | 244° |
| 2026-05-04 04:28 | 24.29164 | -149.96014 | 40017 ft | 464 kts | 244° |
| 2026-05-04 04:28 | 24.26192 | -150.02318 | 40030 ft | 465 kts | 244° |
| 2026-05-04 04:29 | 24.23213 | -150.08631 | 40017 ft | 466 kts | 244° |
| 2026-05-04 04:29 | 24.20238 | -150.14923 | 40022 ft | 464 kts | 244° |
| 2026-05-04 04:30 | 24.17258 | -150.21219 | 40028 ft | 466 kts | 244° |
| 2026-05-04 04:30 | 24.14265 | -150.27534 | 40018 ft | 466 kts | 244° |
| 2026-05-04 04:31 | 24.11294 | -150.33792 | 40027 ft | 465 kts | 244° |
| 2026-05-04 04:31 | 24.08317 | -150.40058 | 40022 ft | 466 kts | 244° |
| 2026-05-04 04:32 | 24.05336 | -150.46323 | 40018 ft | 466 kts | 244° |
| 2026-05-04 04:32 | 24.02328 | -150.52634 | 40031 ft | 462 kts | 244° |
| 2026-05-04 04:33 | 24.00874 | -150.55675 | 40019 ft | 448 kts | 244° |
| 2026-05-04 04:33 | 23.99419 | -150.58727 | 40006 ft | 448 kts | 244° |
| 2026-05-04 04:33 | 23.96518 | -150.64807 | 40033 ft | 458 kts | 244° |
| 2026-05-04 04:34 | 23.93534 | -150.71047 | 40022 ft | 466 kts | 244° |
| 2026-05-04 04:34 | 23.90524 | -150.77330 | 40017 ft | 466 kts | 244° |
| 2026-05-04 04:35 | 23.87525 | -150.83584 | 40030 ft | 469 kts | 243° |
| 2026-05-04 04:35 | 23.84480 | -150.89925 | 40021 ft | 472 kts | 243° |
| 2026-05-04 04:36 | 23.81927 | -150.95233 | 40016 ft | 470 kts | 243° |
| 2026-05-04 04:36 | 23.78904 | -151.01511 | 40028 ft | 470 kts | 243° |
| 2026-05-04 04:37 | 23.72807 | -151.14152 | 40023 ft | 470 kts | 244° |
| 2026-05-04 04:38 | 23.69759 | -151.20456 | 40025 ft | 467 kts | 244° |
| 2026-05-04 04:38 | 23.66725 | -151.26730 | 40016 ft | 468 kts | 244° |
| 2026-05-04 04:39 | 23.63679 | -151.33018 | 40029 ft | 469 kts | 244° |
| 2026-05-04 04:39 | 23.60639 | -151.39284 | 40021 ft | 471 kts | 244° |
| 2026-05-04 04:40 | 23.57574 | -151.45592 | 40020 ft | 469 kts | 244° |
| 2026-05-04 04:40 | 23.54523 | -151.51865 | 40030 ft | 469 kts | 244° |
| 2026-05-04 04:41 | 23.51452 | -151.58172 | 40018 ft | 471 kts | 243° |
| 2026-05-04 04:41 | 23.48386 | -151.64455 | 40023 ft | 469 kts | 243° |
| 2026-05-04 04:42 | 23.45342 | -151.70690 | 40028 ft | 469 kts | 243° |
| 2026-05-04 04:42 | 23.42266 | -151.76983 | 40016 ft | 471 kts | 243° |
| 2026-05-04 04:43 | 23.39193 | -151.83259 | 40028 ft | 469 kts | 243° |
| 2026-05-04 04:43 | 23.36123 | -151.89523 | 40020 ft | 470 kts | 243° |
| 2026-05-04 04:44 | 23.33041 | -151.95800 | 40019 ft | 469 kts | 243° |
| 2026-05-04 04:44 | 23.29960 | -152.02070 | 40030 ft | 469 kts | 243° |
| 2026-05-04 04:45 | 23.26895 | -152.08299 | 40017 ft | 470 kts | 243° |
| 2026-05-04 04:47 | 23.16093 | -152.30191 | 40023 ft | 467 kts | 243° |
| 2026-05-04 04:47 | 23.13040 | -152.36360 | 40027 ft | 466 kts | 243° |
| 2026-05-04 04:48 | 23.09987 | -152.42509 | 40020 ft | 453 kts | 244° |
| 2026-05-04 04:49 | 23.02589 | -152.57419 | 40031 ft | 458 kts | 243° |
| 2026-05-04 04:49 | 22.99511 | -152.63569 | 40017 ft | 466 kts | 243° |
| 2026-05-04 04:50 | 22.96423 | -152.69726 | 40021 ft | 467 kts | 242° |
| 2026-05-04 04:50 | 22.93316 | -152.75910 | 40027 ft | 466 kts | 242° |
| 2026-05-04 04:51 | 22.90187 | -152.82133 | 40020 ft | 472 kts | 243° |
| 2026-05-04 04:51 | 22.87044 | -152.88377 | 40024 ft | 471 kts | 242° |
| 2026-05-04 04:52 | 22.83901 | -152.94613 | 40026 ft | 471 kts | 242° |
| 2026-05-04 04:52 | 22.80768 | -153.00822 | 40016 ft | 472 kts | 242° |
| 2026-05-04 04:53 | 22.77618 | -153.07054 | 40027 ft | 470 kts | 242° |
| 2026-05-04 04:53 | 22.74466 | -153.13286 | 40020 ft | 472 kts | 242° |
| 2026-05-04 04:54 | 22.71314 | -153.19502 | 40018 ft | 466 kts | 243° |
| 2026-05-04 04:54 | 22.68213 | -153.25618 | 40028 ft | 464 kts | 243° |
| 2026-05-04 04:55 | 22.65081 | -153.31790 | 40023 ft | 471 kts | 243° |
| 2026-05-04 04:55 | 22.61918 | -153.38012 | 40016 ft | 471 kts | 243° |
| 2026-05-04 04:56 | 22.58780 | -153.44177 | 40028 ft | 470 kts | 243° |
| 2026-05-04 04:56 | 22.55621 | -153.50376 | 40020 ft | 470 kts | 243° |
| 2026-05-04 04:57 | 22.52459 | -153.56572 | 40020 ft | 470 kts | 243° |
| 2026-05-04 04:57 | 22.49307 | -153.62742 | 40029 ft | 470 kts | 242° |
| 2026-05-04 04:58 | 22.46128 | -153.68958 | 40016 ft | 470 kts | 242° |
| 2026-05-04 04:58 | 22.42961 | -153.75143 | 40053 ft | 469 kts | 242° |
| 2026-05-04 04:59 | 22.39805 | -153.81301 | 40031 ft | 472 kts | 243° |
| 2026-05-04 04:59 | 22.37392 | -153.87890 | 40039 ft | 470 kts | 253° |
| 2026-05-04 05:00 | 22.35469 | -153.94650 | 40018 ft | 470 kts | 255° |
| 2026-05-04 05:01 | 22.33096 | -154.04902 | 40029 ft | 469 kts | 258° |
| 2026-05-04 05:01 | 22.31682 | -154.11786 | 40016 ft | 470 kts | 258° |
| 2026-05-04 05:02 | 22.30291 | -154.18679 | 40025 ft | 468 kts | 258° |
| 2026-05-04 05:02 | 22.28905 | -154.25547 | 40024 ft | 469 kts | 258° |
| 2026-05-04 05:03 | 22.27523 | -154.32380 | 40090 ft | 463 kts | 258° |
| 2026-05-04 05:04 | 22.24739 | -154.46094 | 40027 ft | 470 kts | 258° |
| 2026-05-04 05:04 | 22.23337 | -154.52974 | 40016 ft | 469 kts | 258° |
| 2026-05-04 05:06 | 22.17713 | -154.80424 | 40030 ft | 469 kts | 258° |
| 2026-05-04 05:07 | 22.16291 | -154.87326 | 40016 ft | 469 kts | 258° |
| 2026-05-04 05:07 | 22.14871 | -154.94202 | 40024 ft | 468 kts | 258° |
| 2026-05-04 05:09 | 22.08463 | -155.25043 | 40100 ft | 469 kts | 258° |
| 2026-05-04 05:10 | 22.07037 | -155.31867 | 40111 ft | 469 kts | 258° |
| 2026-05-04 05:10 | 22.05848 | -155.37540 | 40117 ft | 469 kts | 258° |
| 2026-05-04 05:11 | 22.04408 | -155.44405 | 40103 ft | 470 kts | 258° |
| 2026-05-04 05:11 | 22.02969 | -155.51244 | 40113 ft | 468 kts | 258° |
| 2026-05-04 05:12 | 22.01525 | -155.58097 | 40115 ft | 468 kts | 258° |
| 2026-05-04 05:12 | 22.00078 | -155.64948 | 40104 ft | 469 kts | 258° |
| 2026-05-04 05:13 | 21.98628 | -155.71794 | 40117 ft | 468 kts | 258° |
| 2026-05-04 05:13 | 21.97174 | -155.78649 | 40109 ft | 469 kts | 258° |
| 2026-05-04 05:14 | 21.95719 | -155.85490 | 40108 ft | 468 kts | 258° |
| 2026-05-04 05:14 | 21.94261 | -155.92335 | 40117 ft | 468 kts | 258° |
| 2026-05-04 05:15 | 21.92798 | -155.99189 | 40093 ft | 469 kts | 258° |
| 2026-05-04 05:15 | 21.92063 | -156.02625 | 39620 ft | 474 kts | 258° |
| 2026-05-04 05:15 | 21.91325 | -156.06069 | 39198 ft | 468 kts | 258° |
| 2026-05-04 05:16 | 21.90602 | -156.09438 | 38766 ft | 463 kts | 258° |
| 2026-05-04 05:16 | 21.89876 | -156.12818 | 38414 ft | 463 kts | 258° |
| 2026-05-04 05:16 | 21.89153 | -156.16186 | 38078 ft | 467 kts | 258° |
| 2026-05-04 05:16 | 21.88415 | -156.19624 | 37748 ft | 472 kts | 258° |
| 2026-05-04 05:17 | 21.87674 | -156.23069 | 37415 ft | 475 kts | 258° |
| 2026-05-04 05:17 | 21.86924 | -156.26551 | 37113 ft | 476 kts | 258° |
| 2026-05-04 05:17 | 21.86180 | -156.30008 | 36849 ft | 476 kts | 258° |
| 2026-05-04 05:17 | 21.85434 | -156.33473 | 36456 ft | 479 kts | 258° |
| 2026-05-04 05:18 | 21.84681 | -156.36968 | 35968 ft | 481 kts | 258° |
| 2026-05-04 05:18 | 21.83920 | -156.40501 | 35436 ft | 482 kts | 258° |
| 2026-05-04 05:18 | 21.83161 | -156.44015 | 34878 ft | 483 kts | 258° |
| 2026-05-04 05:18 | 21.82401 | -156.47532 | 34303 ft | 485 kts | 258° |
| 2026-05-04 05:19 | 21.81633 | -156.51088 | 33711 ft | 488 kts | 258° |
| 2026-05-04 05:19 | 21.80858 | -156.54668 | 33107 ft | 491 kts | 258° |
| 2026-05-04 05:19 | 21.80082 | -156.58249 | 32498 ft | 490 kts | 258° |
| 2026-05-04 05:19 | 21.79319 | -156.61761 | 31896 ft | 484 kts | 258° |
| 2026-05-04 05:20 | 21.78806 | -156.64118 | 31493 ft | 480 kts | 258° |
| 2026-05-04 05:20 | 21.78043 | -156.67627 | 30896 ft | 477 kts | 258° |
| 2026-05-04 05:20 | 21.77299 | -156.71050 | 30310 ft | 474 kts | 258° |
| 2026-05-04 05:20 | 21.76551 | -156.74486 | 29723 ft | 471 kts | 258° |
| 2026-05-04 05:21 | 21.75802 | -156.77920 | 29134 ft | 467 kts | 258° |
| 2026-05-04 05:21 | 21.75064 | -156.81302 | 28555 ft | 464 kts | 258° |
| 2026-05-04 05:21 | 21.74331 | -156.84661 | 27980 ft | 461 kts | 258° |
| 2026-05-04 05:21 | 21.73597 | -156.88017 | 27406 ft | 458 kts | 258° |
| 2026-05-04 05:22 | 21.72868 | -156.91346 | 26835 ft | 455 kts | 258° |
| 2026-05-04 05:22 | 21.72146 | -156.94638 | 26270 ft | 450 kts | 258° |
| 2026-05-04 05:22 | 21.71435 | -156.97877 | 25712 ft | 440 kts | 258° |
| 2026-05-04 05:22 | 21.70737 | -157.01055 | 25167 ft | 431 kts | 257° |
| 2026-05-04 05:23 | 21.70052 | -157.04167 | 24635 ft | 423 kts | 257° |
| 2026-05-04 05:23 | 21.69389 | -157.07179 | 24121 ft | 416 kts | 257° |
| 2026-05-04 05:23 | 21.68719 | -157.10218 | 23602 ft | 409 kts | 257° |
| 2026-05-04 05:23 | 21.68077 | -157.13132 | 23104 ft | 403 kts | 257° |
| 2026-05-04 05:24 | 21.67394 | -157.16026 | 22577 ft | 398 kts | 255° |
| 2026-05-04 05:24 | 21.66253 | -157.18737 | 21999 ft | 396 kts | 242° |
| 2026-05-04 05:24 | 21.64718 | -157.21154 | 21598 ft | 389 kts | 235° |
| 2026-05-04 05:24 | 21.63064 | -157.23448 | 21102 ft | 385 kts | 233° |
| 2026-05-04 05:25 | 21.61380 | -157.25664 | 20626 ft | 381 kts | 232° |
| 2026-05-04 05:25 | 21.59693 | -157.27842 | 20154 ft | 377 kts | 231° |
| 2026-05-04 05:25 | 21.58018 | -157.29993 | 19687 ft | 373 kts | 231° |
| 2026-05-04 05:25 | 21.56383 | -157.32092 | 19231 ft | 369 kts | 231° |
| 2026-05-04 05:26 | 21.54718 | -157.34229 | 18767 ft | 365 kts | 231° |
| 2026-05-04 05:26 | 21.53194 | -157.36185 | 18342 ft | 362 kts | 231° |
| 2026-05-04 05:26 | 21.52301 | -157.37332 | 18092 ft | 360 kts | 231° |
| 2026-05-04 05:26 | 21.50700 | -157.39387 | 17646 ft | 357 kts | 231° |
| 2026-05-04 05:27 | 21.49113 | -157.41425 | 17159 ft | 354 kts | 231° |
| 2026-05-04 05:28 | 21.40208 | -157.55122 | 14192 ft | 331 kts | 247° |
| 2026-05-04 05:29 | 21.39288 | -157.57388 | 13667 ft | 330 kts | 248° |
| 2026-05-04 05:29 | 21.38391 | -157.59666 | 13141 ft | 330 kts | 248° |
| 2026-05-04 05:29 | 21.37517 | -157.61921 | 12661 ft | 328 kts | 249° |
| 2026-05-04 05:29 | 21.36658 | -157.64153 | 12227 ft | 324 kts | 249° |
| 2026-05-04 05:31 | 21.30702 | -157.79693 | 9022 ft | 312 kts | 248° |
| 2026-05-04 05:31 | 21.29877 | -157.81835 | 8613 ft | 309 kts | 248° |
| 2026-05-04 05:32 | 21.29063 | -157.83947 | 8311 ft | 301 kts | 248° |
| 2026-05-04 05:32 | 21.28269 | -157.85978 | 8064 ft | 294 kts | 247° |
| 2026-05-04 05:32 | 21.27625 | -157.87466 | 7785 ft | 292 kts | 245° |
| 2026-05-04 05:33 | 21.25923 | -157.91235 | 7148 ft | 284 kts | 244° |
| 2026-05-04 05:33 | 21.25058 | -157.93148 | 6854 ft | 280 kts | 244° |
| 2026-05-04 05:33 | 21.24227 | -157.94999 | 6582 ft | 276 kts | 245° |
| 2026-05-04 05:33 | 21.23754 | -157.96970 | 6212 ft | 274 kts | 262° |
| 2026-05-04 05:34 | 21.23721 | -157.98956 | 6116 ft | 263 kts | 269° |
| 2026-05-04 05:34 | 21.23688 | -158.00933 | 5819 ft | 262 kts | 269° |
| 2026-05-04 05:34 | 21.23618 | -158.02839 | 5695 ft | 255 kts | 268° |
| 2026-05-04 05:34 | 21.23550 | -158.04747 | 5430 ft | 255 kts | 268° |
| 2026-05-04 05:35 | 21.23485 | -158.06645 | 5180 ft | 254 kts | 268° |
| 2026-05-04 05:35 | 21.23421 | -158.08537 | 4928 ft | 254 kts | 268° |
| 2026-05-04 05:35 | 21.23357 | -158.10407 | 4680 ft | 253 kts | 268° |
| 2026-05-04 05:35 | 21.23307 | -158.12291 | 4423 ft | 253 kts | 270° |
| 2026-05-04 05:36 | 21.23725 | -158.14150 | 4067 ft | 255 kts | 291° |
| 2026-05-04 05:36 | 21.24748 | -158.15625 | 3773 ft | 247 kts | 315° |
| 2026-05-04 05:36 | 21.26184 | -158.16511 | 3518 ft | 234 kts | 339° |
| 2026-05-04 05:36 | 21.27764 | -158.16668 | 3265 ft | 224 kts | 4° |
| 2026-05-04 05:37 | 21.29223 | -158.16257 | 3217 ft | 212 kts | 17° |
| 2026-05-04 05:37 | 21.30640 | -158.15771 | 3065 ft | 217 kts | 21° |
| 2026-05-04 05:37 | 21.31660 | -158.15112 | 2899 ft | 213 kts | 39° |
| 2026-05-04 05:38 | 21.32570 | -158.12325 | 3068 ft | 199 kts | 83° |
| 2026-05-04 05:38 | 21.32578 | -158.10873 | 3019 ft | 195 kts | 89° |
| 2026-05-04 05:38 | 21.32544 | -158.09443 | 2837 ft | 182 kts | 90° |
| 2026-05-04 05:38 | 21.32521 | -158.08134 | 2585 ft | 169 kts | 90° |
| 2026-05-04 05:39 | 21.32509 | -158.06924 | 2322 ft | 161 kts | 89° |
| 2026-05-04 05:39 | 21.32530 | -158.04586 | 1907 ft | 153 kts | 88° |
| 2026-05-04 05:39 | 21.32535 | -158.03473 | 1718 ft | 146 kts | 88° |
| 2026-05-04 05:40 | 21.32519 | -158.01332 | 1321 ft | 141 kts | 89° |
| 2026-05-04 05:40 | 21.32518 | -158.00291 | 1149 ft | 139 kts | 89° |
| 2026-05-04 05:40 | 21.32523 | -157.99269 | 963 ft | 139 kts | 88° |
| 2026-05-04 05:41 | 21.32528 | -157.98222 | 774 ft | 138 kts | 88° |
| 2026-05-04 05:41 | 21.32528 | -157.97182 | 590 ft | 142 kts | 89° |
| 2026-05-04 05:41 | 21.32525 | -157.96121 | 397 ft | 140 kts | 90° |
| 2026-05-04 05:41 | 21.32523 | -157.95092 | 212 ft | 141 kts | 90° |
| 2026-05-04 05:42 | 21.32525 | -157.94039 | 52 ft | 140 kts | 90° |
| 2026-05-04 05:42 | 21.32529 | -157.93047 | 27 ft | 118 kts | 90° |
| 2026-05-04 05:42 | 21.32526 | -157.92446 | 26 ft | 42 kts | 90° |
| 2026-05-04 05:42 | 21.32531 | -157.92309 | 26 ft | 8 kts | 82° |
| 2026-05-04 05:43 | 21.32571 | -157.92266 | 26 ft | 8 kts | 8° |
| 2026-05-04 05:43 | 21.32653 | -157.92268 | 26 ft | 15 kts | 358° |
| 2026-05-04 05:43 | 21.32760 | -157.92278 | 26 ft | 14 kts | 336° |